createdAt,value
2017-07-12T00:00:41.332Z,22.40
2017-07-12T00:03:08.377Z,22.40
2017-07-12T00:05:34.494Z,22.40
2017-07-12T00:08:00.618Z,22.30
2017-07-12T00:10:27.505Z,22.30
2017-07-12T00:12:53.625Z,22.30
2017-07-12T00:15:19.734Z,22.20
2017-07-12T00:17:46.610Z,22.20
2017-07-12T00:20:12.729Z,22.20
2017-07-12T00:22:38.849Z,22.20
2017-07-12T00:25:05.905Z,22.20
2017-07-12T00:27:32.044Z,22.20
2017-07-12T00:29:58.153Z,22.20
2017-07-12T00:32:25.401Z,22.20
2017-07-12T00:34:51.493Z,22.20
2017-07-12T00:37:17.608Z,22.20
2017-07-12T00:39:43.745Z,22.20
2017-07-12T00:42:09.865Z,22.20
2017-07-12T00:44:37.453Z,22.20
2017-07-12T00:47:04.061Z,22.20
2017-07-12T00:49:30.172Z,22.20
2017-07-12T00:51:57.030Z,22.20
2017-07-12T00:54:25.095Z,22.20
2017-07-12T00:56:51.231Z,22.10
2017-07-12T00:59:17.339Z,22.20
2017-07-12T01:01:43.467Z,22.20
2017-07-12T01:04:09.588Z,22.20
2017-07-12T01:06:35.681Z,22.20
2017-07-12T01:09:01.881Z,22.10
2017-07-12T01:11:28.004Z,22.10
2017-07-12T01:13:54.113Z,22.10
2017-07-12T01:16:20.231Z,22.10
2017-07-12T01:18:46.994Z,22.10
2017-07-12T01:21:13.124Z,22.10
2017-07-12T01:23:39.269Z,22.10
2017-07-12T01:26:05.380Z,22.10
2017-07-12T01:28:31.519Z,22.10
2017-07-12T01:33:29.881Z,22.10
2017-07-12T01:35:56.024Z,22.10
2017-07-12T01:38:22.134Z,22.10
2017-07-12T01:40:49.198Z,22.10
2017-07-12T01:43:16.046Z,22.10
2017-07-12T01:45:43.550Z,22.10
2017-07-12T01:48:09.678Z,22.10
2017-07-12T01:50:35.802Z,22.10
2017-07-12T01:53:01.935Z,22.10
2017-07-12T01:55:29.405Z,22.10
2017-07-12T01:57:55.513Z,22.10
2017-07-12T02:00:21.618Z,22.10
2017-07-12T02:02:48.476Z,22.10
2017-07-12T02:05:15.339Z,22.10
2017-07-12T02:07:41.445Z,22.00
2017-07-12T02:10:08.345Z,22.10
2017-07-12T02:12:34.465Z,22.10
2017-07-12T02:15:00.582Z,22.10
2017-07-12T02:17:28.351Z,22.10
2017-07-12T02:19:54.477Z,22.00
2017-07-12T02:22:21.333Z,22.00
2017-07-12T02:24:50.747Z,22.10
2017-07-12T02:27:16.864Z,22.10
2017-07-12T02:29:49.974Z,22.00
2017-07-12T02:32:16.079Z,22.00
2017-07-12T02:34:42.934Z,22.00
2017-07-12T02:37:11.331Z,22.00
2017-07-12T02:39:37.441Z,22.00
2017-07-12T02:42:05.401Z,22.00
2017-07-12T02:44:32.381Z,22.00
2017-07-12T02:47:00.701Z,22.00
2017-07-12T02:49:26.838Z,22.00
2017-07-12T02:51:54.670Z,22.00
2017-07-12T02:54:20.785Z,22.00
2017-07-12T02:56:55.438Z,22.00
2017-07-12T02:59:22.978Z,22.00
2017-07-12T03:01:49.839Z,22.00
2017-07-12T03:04:16.707Z,22.00
2017-07-12T03:06:42.860Z,22.00
2017-07-12T03:09:08.993Z,22.00
2017-07-12T03:11:36.013Z,22.00
2017-07-12T03:14:02.113Z,22.00
2017-07-12T03:16:28.999Z,22.00
2017-07-12T03:18:57.057Z,22.00
2017-07-12T03:21:23.918Z,22.00
2017-07-12T03:23:50.038Z,22.00
2017-07-12T03:26:16.935Z,22.00
2017-07-12T03:28:43.093Z,22.00
2017-07-12T03:31:09.218Z,22.00
2017-07-12T03:33:35.347Z,22.00
2017-07-12T03:36:01.459Z,22.00
2017-07-12T03:38:33.970Z,22.00
2017-07-12T03:41:00.097Z,22.00
2017-07-12T03:43:26.228Z,22.00
2017-07-12T03:45:52.360Z,22.00
2017-07-12T03:48:21.465Z,22.00
2017-07-12T03:50:47.587Z,22.00
2017-07-12T03:53:14.574Z,22.00
2017-07-12T03:55:41.426Z,22.00
2017-07-12T03:58:12.374Z,22.00
2017-07-12T04:00:39.338Z,22.00
2017-07-12T04:03:05.478Z,22.00
2017-07-12T04:05:31.589Z,22.00
2017-07-12T04:07:57.727Z,22.00
2017-07-12T04:10:23.848Z,22.00
2017-07-12T04:12:50.725Z,22.00
2017-07-12T04:15:16.870Z,22.00
2017-07-12T04:17:42.981Z,22.00
2017-07-12T04:20:09.098Z,22.00
2017-07-12T04:22:36.757Z,22.00
2017-07-12T04:25:03.653Z,22.00
2017-07-12T04:27:29.762Z,22.00
2017-07-12T04:29:55.889Z,22.00
2017-07-12T04:32:21.993Z,22.00
2017-07-12T04:34:48.108Z,22.00
2017-07-12T04:37:14.253Z,22.00
2017-07-12T04:39:40.360Z,22.00
2017-07-12T04:42:06.455Z,22.00
2017-07-12T04:44:32.626Z,22.00
2017-07-12T04:46:58.731Z,22.00
2017-07-12T04:49:26.965Z,22.00
2017-07-12T04:51:53.072Z,22.00
2017-07-12T04:54:19.201Z,22.00
2017-07-12T04:56:45.319Z,22.00
2017-07-12T04:59:13.520Z,22.00
2017-07-12T05:01:40.406Z,22.00
2017-07-12T05:04:06.522Z,22.00
2017-07-12T05:06:32.675Z,22.00
2017-07-12T05:08:58.808Z,22.00
2017-07-12T05:11:24.922Z,22.00
2017-07-12T05:13:51.989Z,22.00
2017-07-12T05:16:18.833Z,22.00
2017-07-12T05:18:45.703Z,22.00
2017-07-12T05:21:12.036Z,21.90
2017-07-12T05:23:38.177Z,22.00
2017-07-12T05:26:04.333Z,22.00
2017-07-12T05:28:30.826Z,22.00
2017-07-12T05:30:57.695Z,22.00
2017-07-12T05:33:23.819Z,21.90
2017-07-12T05:35:49.954Z,22.00
2017-07-12T05:38:16.074Z,22.00
2017-07-12T05:40:42.930Z,22.00
2017-07-12T05:43:09.204Z,21.90
2017-07-12T05:45:35.355Z,22.00
2017-07-12T05:48:01.454Z,22.00
2017-07-12T05:50:29.092Z,22.00
2017-07-12T05:52:55.933Z,22.00
2017-07-12T05:55:22.779Z,22.00
2017-07-12T05:57:49.658Z,21.90
2017-07-12T06:00:29.198Z,21.90
2017-07-12T06:02:57.017Z,21.90
2017-07-12T06:05:23.898Z,21.90
2017-07-12T06:07:50.042Z,21.90
2017-07-12T06:10:16.246Z,22.00
2017-07-12T06:12:43.129Z,21.90
2017-07-12T06:15:10.221Z,21.90
2017-07-12T06:17:36.338Z,21.90
2017-07-12T06:20:02.436Z,22.00
2017-07-12T06:22:28.556Z,21.90
2017-07-12T06:24:55.609Z,22.00
2017-07-12T06:27:23.797Z,21.90
2017-07-12T06:29:50.178Z,22.00
2017-07-12T06:32:16.662Z,22.00
2017-07-12T06:34:43.539Z,21.90
2017-07-12T06:37:09.662Z,21.90
2017-07-12T06:39:35.803Z,22.00
2017-07-12T06:42:01.931Z,21.90
2017-07-12T06:44:28.050Z,21.90
2017-07-12T06:46:54.189Z,21.90
2017-07-12T06:49:20.326Z,22.00
2017-07-12T06:51:47.858Z,21.90
2017-07-12T06:54:15.137Z,22.00
2017-07-12T06:56:41.266Z,21.90
2017-07-12T06:59:07.377Z,22.00
2017-07-12T07:01:34.248Z,21.90
2017-07-12T07:04:01.061Z,21.90
2017-07-12T07:06:27.183Z,22.00
2017-07-12T07:08:53.340Z,21.90
2017-07-12T07:11:20.214Z,22.00
2017-07-12T07:13:46.324Z,21.90
2017-07-12T07:16:13.257Z,22.00
2017-07-12T07:18:39.370Z,21.90
2017-07-12T07:21:06.098Z,21.90
2017-07-12T07:23:32.239Z,22.00
2017-07-12T07:25:58.346Z,22.00
2017-07-12T07:28:24.477Z,21.90
2017-07-12T07:30:50.642Z,21.90
2017-07-12T07:33:16.756Z,21.90
2017-07-12T07:35:42.876Z,21.90
2017-07-12T07:38:12.261Z,21.90
2017-07-12T07:40:39.114Z,21.90
2017-07-12T07:43:05.256Z,21.90
2017-07-12T07:45:32.562Z,21.90
2017-07-12T07:47:58.677Z,21.90
2017-07-12T07:50:24.795Z,21.90
2017-07-12T07:52:53.949Z,21.90
2017-07-12T07:55:21.689Z,21.90
2017-07-12T07:57:47.838Z,21.90
2017-07-12T08:00:13.986Z,22.00
2017-07-12T08:02:40.132Z,21.90
2017-07-12T08:05:07.154Z,22.00
2017-07-12T08:07:33.729Z,21.90
2017-07-12T08:10:00.189Z,22.00
2017-07-12T08:12:33.187Z,22.20
2017-07-12T08:14:59.320Z,22.10
2017-07-12T08:17:25.438Z,22.00
2017-07-12T08:19:52.182Z,22.00
2017-07-12T08:22:18.301Z,22.00
2017-07-12T08:24:44.439Z,22.00
2017-07-12T08:27:10.584Z,22.00
2017-07-12T08:29:36.811Z,22.00
2017-07-12T08:32:02.961Z,22.00
2017-07-12T08:34:29.285Z,22.00
2017-07-12T08:36:55.389Z,22.00
2017-07-12T08:39:21.557Z,22.00
2017-07-12T08:41:48.084Z,21.90
2017-07-12T08:44:14.238Z,22.00
2017-07-12T08:46:40.345Z,21.90
2017-07-12T08:49:06.502Z,22.00
2017-07-12T08:51:32.714Z,21.80
2017-07-12T08:54:00.331Z,21.40
2017-07-12T08:56:26.497Z,21.30
2017-07-12T08:58:53.417Z,21.00
2017-07-12T09:01:20.274Z,20.80
2017-07-12T09:03:46.428Z,20.80
2017-07-12T09:06:13.452Z,20.80
2017-07-12T09:08:39.557Z,20.80
2017-07-12T09:11:05.681Z,21.10
2017-07-12T09:13:31.797Z,21.30
2017-07-12T09:15:57.906Z,21.50
2017-07-12T09:18:24.830Z,21.60
2017-07-12T09:20:50.965Z,21.60
2017-07-12T09:23:17.839Z,21.60
2017-07-12T09:33:02.919Z,21.60
2017-07-12T09:35:29.898Z,21.70
2017-07-12T09:37:56.020Z,21.70
2017-07-12T09:40:22.499Z,21.70
2017-07-12T09:42:49.376Z,21.60
2017-07-12T09:45:15.488Z,21.60
2017-07-12T09:47:42.357Z,21.70
2017-07-12T09:50:08.475Z,21.70
2017-07-12T09:52:35.331Z,21.70
2017-07-12T09:55:02.837Z,21.70
2017-07-12T09:57:28.932Z,21.70
2017-07-12T09:59:55.574Z,21.70
2017-07-12T10:02:21.906Z,21.70
2017-07-12T10:04:48.025Z,21.70
2017-07-12T10:07:17.183Z,21.70
2017-07-12T10:09:43.373Z,21.70
2017-07-12T10:12:09.516Z,21.70
2017-07-12T10:14:35.633Z,21.70
2017-07-12T10:17:01.746Z,21.70
2017-07-12T10:19:28.623Z,21.70
2017-07-12T10:21:54.762Z,21.70
2017-07-12T10:24:20.995Z,21.70
2017-07-12T10:26:47.125Z,21.70
2017-07-12T10:29:13.289Z,21.70
2017-07-12T10:31:39.446Z,21.70
2017-07-12T10:34:05.598Z,21.70
2017-07-12T10:36:32.451Z,21.70
2017-07-12T10:38:59.353Z,21.70
2017-07-12T10:41:25.461Z,21.70
2017-07-12T10:43:51.582Z,21.70
2017-07-12T10:46:17.795Z,21.70
2017-07-12T10:48:44.653Z,21.70
2017-07-12T10:51:10.781Z,21.70
2017-07-12T10:53:37.129Z,21.70
2017-07-12T10:56:05.493Z,21.80
2017-07-12T10:58:32.380Z,21.70
2017-07-12T11:00:58.533Z,21.70
2017-07-12T11:03:24.659Z,21.80
2017-07-12T11:05:50.788Z,21.70
2017-07-12T11:08:18.646Z,21.70
2017-07-12T11:10:44.790Z,21.70
2017-07-12T11:13:10.923Z,21.70
2017-07-12T11:15:37.066Z,21.70
2017-07-12T11:18:03.194Z,21.70
2017-07-12T11:20:29.323Z,21.70
2017-07-12T11:22:55.504Z,21.70
2017-07-12T11:25:21.692Z,21.70
2017-07-12T11:27:47.816Z,21.70
2017-07-12T11:30:14.552Z,21.70
2017-07-12T11:32:41.496Z,21.70
2017-07-12T11:35:07.729Z,21.70
2017-07-12T11:37:33.881Z,21.70
2017-07-12T11:40:00.021Z,21.80
2017-07-12T11:42:26.381Z,21.70
2017-07-12T11:44:52.506Z,21.70
2017-07-12T11:47:18.621Z,21.70
2017-07-12T11:49:44.773Z,21.70
2017-07-12T11:52:11.776Z,21.70
2017-07-12T11:54:37.903Z,21.70
2017-07-12T11:57:05.539Z,21.70
2017-07-12T11:59:33.335Z,21.70
2017-07-12T12:01:59.462Z,21.70
2017-07-12T12:04:25.587Z,21.70
2017-07-12T12:06:52.641Z,21.70
2017-07-12T12:09:20.698Z,21.70
2017-07-12T12:11:48.119Z,21.70
2017-07-12T12:14:14.866Z,21.70
2017-07-12T12:16:41.005Z,21.70
2017-07-12T12:19:07.145Z,21.70
2017-07-12T12:21:33.331Z,21.70
2017-07-12T12:23:59.737Z,21.70
2017-07-12T12:26:25.860Z,21.70
2017-07-12T12:28:52.687Z,21.70
2017-07-12T12:31:18.825Z,21.70
2017-07-12T12:33:45.001Z,21.70
2017-07-12T12:36:11.946Z,21.70
2017-07-12T12:38:38.839Z,21.70
2017-07-12T12:41:05.013Z,21.70
2017-07-12T12:43:32.152Z,21.70
2017-07-12T12:45:59.068Z,21.70
2017-07-12T12:48:25.297Z,21.70
2017-07-12T12:50:51.455Z,21.70
2017-07-12T12:53:17.651Z,21.70
2017-07-12T12:55:45.008Z,21.70
2017-07-12T12:58:12.715Z,21.60
2017-07-12T13:00:38.836Z,21.60
2017-07-12T13:03:04.986Z,21.70
2017-07-12T13:05:37.342Z,21.70
2017-07-12T13:08:03.499Z,21.70
2017-07-12T13:10:30.481Z,21.60
2017-07-12T13:12:57.378Z,21.70
2017-07-12T13:15:23.501Z,21.70
2017-07-12T13:17:49.660Z,21.70
2017-07-12T13:20:16.744Z,21.60
2017-07-12T13:22:42.874Z,21.60
2017-07-12T13:25:09.098Z,21.60
2017-07-12T13:27:35.219Z,21.60
2017-07-12T13:30:01.368Z,21.60
2017-07-12T13:32:27.524Z,21.60
2017-07-12T13:34:54.398Z,21.50
2017-07-12T13:37:20.540Z,21.50
2017-07-12T13:39:46.706Z,21.50
2017-07-12T13:42:13.407Z,21.40
2017-07-12T13:44:39.569Z,21.40
2017-07-12T13:47:05.695Z,21.40
2017-07-12T13:49:31.871Z,21.30
2017-07-12T13:51:58.759Z,21.30
2017-07-12T13:54:25.603Z,21.30
2017-07-12T13:56:52.101Z,21.30
2017-07-12T13:59:19.696Z,21.30
2017-07-12T14:01:45.814Z,21.30
2017-07-12T14:04:12.371Z,21.30
2017-07-12T14:06:39.222Z,21.40
2017-07-12T14:09:12.962Z,21.30
2017-07-12T14:11:40.420Z,21.30
2017-07-12T14:14:06.568Z,21.30
2017-07-12T14:16:32.726Z,21.20
2017-07-12T14:18:58.865Z,21.20
2017-07-12T14:21:25.011Z,21.20
2017-07-12T14:23:52.476Z,21.10
2017-07-12T14:26:19.331Z,21.10
2017-07-12T14:28:45.513Z,21.10
2017-07-12T14:31:11.672Z,21.10
2017-07-12T14:33:38.569Z,21.10
2017-07-12T14:36:11.715Z,21.10
2017-07-12T14:38:38.582Z,20.30
2017-07-12T14:41:05.466Z,19.90
2017-07-12T14:43:32.616Z,19.90
2017-07-12T14:45:58.737Z,20.00
2017-07-12T14:48:24.880Z,19.80
2017-07-12T14:50:51.040Z,19.80
2017-07-12T14:53:17.171Z,19.90
2017-07-12T14:55:43.321Z,19.80
2017-07-12T14:58:09.476Z,19.90
2017-07-12T15:00:37.055Z,19.80
2017-07-12T15:03:03.167Z,19.90
2017-07-12T15:05:29.297Z,19.90
2017-07-12T15:07:56.178Z,19.70
2017-07-12T15:10:22.324Z,19.70
2017-07-12T15:12:49.332Z,19.70
2017-07-12T15:15:15.524Z,19.80
2017-07-12T15:17:42.441Z,19.80
2017-07-12T15:20:08.601Z,19.70
2017-07-12T15:22:34.712Z,19.70
2017-07-12T15:25:00.855Z,19.70
2017-07-12T15:27:27.341Z,19.70
2017-07-12T15:29:54.412Z,19.60
2017-07-12T15:32:21.297Z,19.90
2017-07-12T15:34:47.450Z,19.90
2017-07-12T15:37:13.609Z,20.30
2017-07-12T15:39:39.742Z,20.50
2017-07-12T15:42:06.555Z,20.70
2017-07-12T15:44:32.700Z,20.80
2017-07-12T15:46:58.893Z,20.90
2017-07-12T15:49:25.335Z,20.90
2017-07-12T15:51:51.471Z,21.00
2017-07-12T15:54:17.613Z,21.00
2017-07-12T15:56:43.946Z,21.00
2017-07-12T15:59:10.089Z,21.00
2017-07-12T16:01:37.697Z,21.00
2017-07-12T16:04:05.441Z,21.10
2017-07-12T16:06:32.916Z,21.10
2017-07-12T16:08:59.621Z,21.10
2017-07-12T16:11:26.573Z,21.10
2017-07-12T16:13:54.105Z,21.10
2017-07-12T16:16:20.978Z,21.20
2017-07-12T16:18:47.111Z,21.10
2017-07-12T16:21:13.229Z,21.10
2017-07-12T16:23:40.105Z,21.20
2017-07-12T16:26:06.233Z,21.20
2017-07-12T16:28:32.369Z,21.20
2017-07-12T16:30:58.506Z,21.20
2017-07-12T16:33:25.698Z,21.20
2017-07-12T16:35:51.832Z,21.20
2017-07-12T16:38:17.982Z,21.20
2017-07-12T16:40:44.872Z,21.20
2017-07-12T16:43:10.992Z,21.20
2017-07-12T16:45:37.144Z,21.20
2017-07-12T16:48:03.305Z,21.20
2017-07-12T16:50:29.440Z,21.20
2017-07-12T16:52:55.571Z,21.20
2017-07-12T16:55:22.072Z,21.20
2017-07-12T16:57:48.203Z,21.30
2017-07-12T17:00:14.328Z,21.30
2017-07-12T17:02:41.972Z,21.20
2017-07-12T17:05:08.839Z,21.30
2017-07-12T17:07:34.994Z,21.30
2017-07-12T17:10:01.178Z,21.30
2017-07-12T17:12:27.956Z,21.30
2017-07-12T17:15:06.182Z,21.30
2017-07-12T17:17:32.309Z,21.30
2017-07-12T17:19:58.426Z,21.30
2017-07-12T17:22:24.587Z,21.30
2017-07-12T17:24:50.714Z,21.30
2017-07-12T17:27:16.831Z,21.30
2017-07-12T17:29:42.982Z,21.30
2017-07-12T17:32:09.117Z,21.30
2017-07-12T17:34:35.245Z,21.30
2017-07-12T17:37:01.772Z,21.30
2017-07-12T17:39:27.928Z,21.30
2017-07-12T17:41:54.613Z,21.30
2017-07-12T17:44:21.512Z,21.30
2017-07-12T17:46:47.648Z,21.30
2017-07-12T17:49:13.780Z,21.30
2017-07-12T17:51:39.934Z,21.30
2017-07-12T17:54:06.085Z,21.30
2017-07-12T17:56:32.967Z,21.30
2017-07-12T17:58:59.167Z,21.30
2017-07-12T18:01:26.599Z,21.30
2017-07-12T18:03:54.207Z,21.30
2017-07-12T18:06:21.604Z,21.30
2017-07-12T18:08:48.446Z,21.30
2017-07-12T18:11:15.159Z,21.30
2017-07-12T18:13:42.048Z,21.30
2017-07-12T18:16:20.302Z,21.30
2017-07-12T18:18:48.125Z,21.30
2017-07-12T18:21:14.250Z,21.30
2017-07-12T18:23:40.412Z,21.40
2017-07-12T18:26:06.913Z,21.40
2017-07-12T18:28:33.049Z,21.40
2017-07-12T18:30:59.183Z,21.30
2017-07-12T18:33:25.345Z,21.30
2017-07-12T18:35:51.614Z,21.30
2017-07-12T18:38:18.624Z,21.30
2017-07-12T18:40:45.664Z,21.40
2017-07-12T18:43:11.795Z,21.30
2017-07-12T18:45:37.936Z,21.30
2017-07-12T18:48:04.066Z,21.30
2017-07-12T18:50:30.452Z,21.30
2017-07-12T18:52:57.349Z,21.30
2017-07-12T18:55:23.493Z,21.30
2017-07-12T18:57:49.607Z,21.30
2017-07-12T19:00:15.718Z,21.30
2017-07-12T19:02:42.777Z,21.30
2017-07-12T19:05:10.286Z,21.30
2017-07-12T19:07:36.406Z,21.30
2017-07-12T19:10:02.562Z,21.30
2017-07-12T19:12:28.677Z,21.30
2017-07-12T19:14:54.789Z,21.30
2017-07-12T19:17:31.960Z,21.30
2017-07-12T19:19:58.141Z,21.30
2017-07-12T19:22:24.257Z,21.30
2017-07-12T19:24:51.181Z,21.30
2017-07-12T19:27:17.340Z,21.30
2017-07-12T19:29:43.475Z,21.30
2017-07-12T19:32:09.600Z,21.30
2017-07-12T19:34:35.736Z,21.30
2017-07-12T19:37:01.908Z,21.30
2017-07-12T19:39:28.095Z,21.30
2017-07-12T19:41:54.231Z,21.30
2017-07-12T19:44:20.700Z,21.30
2017-07-12T19:46:46.913Z,21.30
2017-07-12T19:49:13.046Z,21.30
2017-07-12T19:51:39.210Z,21.30
2017-07-12T19:54:05.448Z,21.30
2017-07-12T19:56:31.580Z,21.30
2017-07-12T19:58:58.466Z,21.30
2017-07-12T20:01:24.633Z,21.30
2017-07-12T20:03:50.769Z,21.30
2017-07-12T20:06:18.518Z,21.30
2017-07-12T20:08:45.163Z,21.20
2017-07-12T20:11:11.291Z,21.20
2017-07-12T20:13:37.424Z,21.20
2017-07-12T20:16:03.638Z,21.30
2017-07-12T20:18:31.131Z,21.20
2017-07-12T20:20:57.286Z,21.20
2017-07-12T20:23:24.839Z,21.30
2017-07-12T20:25:51.685Z,21.20
2017-07-12T20:28:17.831Z,21.20
2017-07-12T20:30:45.161Z,21.30
2017-07-12T20:33:11.339Z,21.20
2017-07-12T20:35:37.475Z,21.20
2017-07-12T20:38:03.636Z,21.20
2017-07-12T20:40:29.814Z,21.20
2017-07-12T20:42:56.719Z,21.20
2017-07-12T20:45:23.064Z,21.20
2017-07-12T20:47:49.177Z,21.20
2017-07-12T20:50:15.349Z,21.20
2017-07-12T20:52:42.796Z,21.20
2017-07-12T20:55:08.956Z,21.30
2017-07-12T20:57:35.062Z,21.30
2017-07-12T21:00:01.215Z,21.20
2017-07-12T21:02:27.469Z,21.30
2017-07-12T21:04:54.420Z,21.30
2017-07-12T21:07:21.965Z,21.20
2017-07-12T21:09:48.096Z,21.30
2017-07-12T21:12:14.291Z,21.20
2017-07-12T21:14:40.957Z,21.10
2017-07-12T21:17:07.140Z,21.10
2017-07-12T21:19:33.376Z,21.10
2017-07-12T21:21:59.931Z,21.10
2017-07-12T21:24:26.796Z,21.80
2017-07-12T21:26:53.685Z,21.60
2017-07-12T21:29:19.975Z,21.50
2017-07-12T21:31:46.118Z,21.50
2017-07-12T21:34:12.323Z,21.50
2017-07-12T21:36:39.729Z,21.60
2017-07-12T21:39:06.513Z,21.60
2017-07-12T21:41:32.720Z,21.60
2017-07-12T21:43:58.877Z,21.50
2017-07-12T21:46:25.552Z,21.50
2017-07-12T21:48:52.448Z,21.50
2017-07-12T21:51:18.731Z,21.50
2017-07-12T21:54:03.706Z,21.60
2017-07-12T21:56:49.172Z,21.60
2017-07-12T21:59:34.061Z,21.60
2017-07-12T22:02:19.152Z,21.60
2017-07-12T22:05:03.912Z,21.60
2017-07-12T22:07:49.951Z,21.60
2017-07-12T22:10:35.577Z,21.60
2017-07-12T22:13:21.126Z,21.60
2017-07-12T22:16:05.821Z,21.60
2017-07-12T22:18:50.816Z,21.70
2017-07-12T22:21:37.115Z,21.70
2017-07-12T22:24:22.696Z,21.70
2017-07-12T22:27:07.637Z,21.70
2017-07-12T22:29:52.419Z,21.70
2017-07-12T22:32:37.102Z,21.70
2017-07-12T22:35:21.861Z,21.70
2017-07-12T22:37:54.211Z,21.70
2017-07-12T22:40:26.427Z,21.70
2017-07-12T22:42:58.718Z,21.70
2017-07-12T22:45:24.870Z,21.70
2017-07-12T22:47:51.854Z,21.70
2017-07-12T22:50:18.001Z,21.70
2017-07-12T22:52:45.067Z,21.70
2017-07-12T22:55:11.996Z,21.80
2017-07-12T22:57:38.133Z,21.70
2017-07-12T23:00:04.395Z,21.80
2017-07-12T23:02:30.525Z,21.80
2017-07-12T23:04:56.666Z,21.80
2017-07-12T23:07:23.441Z,21.80
2017-07-12T23:09:51.005Z,21.80
2017-07-12T23:12:17.906Z,21.80
2017-07-12T23:14:44.077Z,21.70
2017-07-12T23:17:10.950Z,21.80
2017-07-12T23:19:37.092Z,21.70
2017-07-12T23:22:04.143Z,21.80
2017-07-12T23:24:30.290Z,21.80
2017-07-12T23:26:56.436Z,21.80
2017-07-12T23:29:22.645Z,21.80
2017-07-12T23:31:48.813Z,21.80
2017-07-12T23:34:14.975Z,21.80
2017-07-12T23:36:41.258Z,21.80
2017-07-12T23:39:07.444Z,21.80
2017-07-12T23:41:33.616Z,21.80
2017-07-12T23:46:31.779Z,21.80
2017-07-12T23:48:57.931Z,21.80
2017-07-12T23:51:24.089Z,21.90
2017-07-12T23:53:50.276Z,21.90
2017-07-12T23:56:16.437Z,21.90
2017-07-12T23:58:42.597Z,21.90
